sensor_id;sensor_type;location;lat;lon;timestamp;P1;durP1;ratioP1;P2;durP2;ratioP2
5460;SDS011;2753;49.196;8.286;2022-12-08T00:01:11;26.77;;;14.20;;
5460;SDS011;2753;49.196;8.286;2022-12-08T00:03:38;31.50;;;15.40;;
5460;SDS011;2753;49.196;8.286;2022-12-08T00:06:05;31.80;;;16.40;;
5460;SDS011;2753;49.196;8.286;2022-12-08T00:08:50;30.27;;;14.70;;
5460;SDS011;2753;49.196;8.286;2022-12-08T00:11:35;26.60;;;13.90;;
5460;SDS011;2753;49.196;8.286;2022-12-08T00:14:01;28.50;;;14.30;;
5460;SDS011;2753;49.196;8.286;2022-12-08T00:16:27;31.47;;;14.80;;
5460;SDS011;2753;49.196;8.286;2022-12-08T00:18:52;33.87;;;16.10;;
5460;SDS011;2753;49.196;8.286;2022-12-08T00:21:18;33.03;;;14.90;;
5460;SDS011;2753;49.196;8.286;2022-12-08T00:23:44;30.97;;;15.90;;
5460;SDS011;2753;49.196;8.286;2022-12-08T00:26:09;34.47;;;16.10;;
5460;SDS011;2753;49.196;8.286;2022-12-08T00:28:35;36.97;;;17.50;;
5460;SDS011;2753;49.196;8.286;2022-12-08T00:31:08;33.03;;;14.17;;
5460;SDS011;2753;49.196;8.286;2022-12-08T00:33:34;33.93;;;16.27;;
5460;SDS011;2753;49.196;8.286;2022-12-08T00:36:06;31.33;;;15.47;;
5460;SDS011;2753;49.196;8.286;2022-12-08T00:38:33;31.77;;;14.37;;
5460;SDS011;2753;49.196;8.286;2022-12-08T00:41:00;32.77;;;16.23;;
5460;SDS011;2753;49.196;8.286;2022-12-08T00:43:25;33.53;;;18.40;;
5460;SDS011;2753;49.196;8.286;2022-12-08T00:45:51;36.63;;;16.00;;
5460;SDS011;2753;49.196;8.286;2022-12-08T00:48:17;36.07;;;16.80;;
5460;SDS011;2753;49.196;8.286;2022-12-08T00:50:42;35.97;;;15.80;;
5460;SDS011;2753;49.196;8.286;2022-12-08T00:53:08;36.13;;;17.10;;
5460;SDS011;2753;49.196;8.286;2022-12-08T00:55:34;30.03;;;14.77;;
5460;SDS011;2753;49.196;8.286;2022-12-08T00:57:59;34.73;;;16.70;;
5460;SDS011;2753;49.196;8.286;2022-12-08T01:00:25;38.83;;;16.87;;
5460;SDS011;2753;49.196;8.286;2022-12-08T01:02:51;35.50;;;18.23;;
5460;SDS011;2753;49.196;8.286;2022-12-08T01:05:16;39.30;;;17.57;;
5460;SDS011;2753;49.196;8.286;2022-12-08T01:07:42;33.33;;;15.90;;
5460;SDS011;2753;49.196;8.286;2022-12-08T01:10:08;36.87;;;15.47;;
5460;SDS011;2753;49.196;8.286;2022-12-08T01:12:34;35.63;;;17.97;;
5460;SDS011;2753;49.196;8.286;2022-12-08T01:15:00;38.17;;;16.80;;
5460;SDS011;2753;49.196;8.286;2022-12-08T01:17:25;30.60;;;15.13;;
5460;SDS011;2753;49.196;8.286;2022-12-08T01:19:51;31.63;;;15.80;;
5460;SDS011;2753;49.196;8.286;2022-12-08T01:22:16;29.80;;;16.37;;
5460;SDS011;2753;49.196;8.286;2022-12-08T01:24:42;32.00;;;14.83;;
5460;SDS011;2753;49.196;8.286;2022-12-08T01:27:08;31.10;;;16.13;;
5460;SDS011;2753;49.196;8.286;2022-12-08T01:29:33;32.63;;;17.10;;
5460;SDS011;2753;49.196;8.286;2022-12-08T01:31:59;27.20;;;14.60;;
5460;SDS011;2753;49.196;8.286;2022-12-08T01:34:25;25.43;;;14.20;;
5460;SDS011;2753;49.196;8.286;2022-12-08T01:36:51;32.23;;;15.43;;
5460;SDS011;2753;49.196;8.286;2022-12-08T01:39:17;28.63;;;14.60;;
5460;SDS011;2753;49.196;8.286;2022-12-08T01:41:43;31.47;;;14.40;;
5460;SDS011;2753;49.196;8.286;2022-12-08T01:46:37;28.30;;;15.10;;
5460;SDS011;2753;49.196;8.286;2022-12-08T01:49:47;26.10;;;14.33;;
5460;SDS011;2753;49.196;8.286;2022-12-08T01:52:17;26.53;;;12.90;;
5460;SDS011;2753;49.196;8.286;2022-12-08T01:54:55;29.13;;;14.23;;
5460;SDS011;2753;49.196;8.286;2022-12-08T01:57:30;27.83;;;13.90;;
5460;SDS011;2753;49.196;8.286;2022-12-08T02:00:07;33.03;;;14.97;;
5460;SDS011;2753;49.196;8.286;2022-12-08T02:02:56;31.93;;;14.10;;
5460;SDS011;2753;49.196;8.286;2022-12-08T02:05:28;26.20;;;16.20;;
5460;SDS011;2753;49.196;8.286;2022-12-08T02:07:56;27.43;;;14.03;;
5460;SDS011;2753;49.196;8.286;2022-12-08T02:10:26;28.00;;;13.80;;
5460;SDS011;2753;49.196;8.286;2022-12-08T02:34:44;24.47;;;13.10;;
5460;SDS011;2753;49.196;8.286;2022-12-08T02:47:32;21.33;;;10.00;;
5460;SDS011;2753;49.196;8.286;2022-12-08T02:49:59;19.60;;;9.50;;
5460;SDS011;2753;49.196;8.286;2022-12-08T02:54:52;22.70;;;10.87;;
5460;SDS011;2753;49.196;8.286;2022-12-08T03:07:48;24.43;;;10.20;;
5460;SDS011;2753;49.196;8.286;2022-12-08T03:10:26;20.87;;;10.00;;
5460;SDS011;2753;49.196;8.286;2022-12-08T03:12:58;18.43;;;10.47;;
5460;SDS011;2753;49.196;8.286;2022-12-08T03:15:40;29.73;;;13.17;;
5460;SDS011;2753;49.196;8.286;2022-12-08T03:18:10;17.70;;;9.33;;
5460;SDS011;2753;49.196;8.286;2022-12-08T03:20:39;23.57;;;10.80;;
5460;SDS011;2753;49.196;8.286;2022-12-08T03:23:07;20.53;;;10.13;;
5460;SDS011;2753;49.196;8.286;2022-12-08T03:25:35;19.70;;;10.27;;
5460;SDS011;2753;49.196;8.286;2022-12-08T03:28:05;18.60;;;10.13;;
5460;SDS011;2753;49.196;8.286;2022-12-08T03:30:31;20.13;;;10.40;;
5460;SDS011;2753;49.196;8.286;2022-12-08T03:33:05;21.90;;;11.17;;
5460;SDS011;2753;49.196;8.286;2022-12-08T03:35:36;27.13;;;13.63;;
5460;SDS011;2753;49.196;8.286;2022-12-08T03:38:09;18.33;;;10.20;;
5460;SDS011;2753;49.196;8.286;2022-12-08T03:40:37;25.60;;;13.33;;
5460;SDS011;2753;49.196;8.286;2022-12-08T03:43:03;29.07;;;13.20;;
5460;SDS011;2753;49.196;8.286;2022-12-08T03:45:29;28.27;;;14.83;;
5460;SDS011;2753;49.196;8.286;2022-12-08T03:47:55;27.77;;;14.33;;
5460;SDS011;2753;49.196;8.286;2022-12-08T03:50:21;25.53;;;14.73;;
5460;SDS011;2753;49.196;8.286;2022-12-08T03:52:47;26.60;;;13.33;;
5460;SDS011;2753;49.196;8.286;2022-12-08T03:55:12;25.83;;;12.30;;
5460;SDS011;2753;49.196;8.286;2022-12-08T03:57:38;35.03;;;14.07;;
5460;SDS011;2753;49.196;8.286;2022-12-08T04:00:05;30.10;;;13.60;;
5460;SDS011;2753;49.196;8.286;2022-12-08T04:02:32;25.60;;;13.57;;
5460;SDS011;2753;49.196;8.286;2022-12-08T04:04:57;30.03;;;14.63;;
5460;SDS011;2753;49.196;8.286;2022-12-08T04:07:23;33.23;;;15.13;;
5460;SDS011;2753;49.196;8.286;2022-12-08T04:09:49;36.33;;;15.20;;
5460;SDS011;2753;49.196;8.286;2022-12-08T04:12:15;28.83;;;15.00;;
5460;SDS011;2753;49.196;8.286;2022-12-08T04:14:40;33.33;;;16.57;;
5460;SDS011;2753;49.196;8.286;2022-12-08T04:17:06;30.00;;;14.30;;
5460;SDS011;2753;49.196;8.286;2022-12-08T04:19:32;24.47;;;13.47;;
5460;SDS011;2753;49.196;8.286;2022-12-08T04:21:57;32.47;;;14.87;;
5460;SDS011;2753;49.196;8.286;2022-12-08T04:24:23;35.67;;;15.63;;
5460;SDS011;2753;49.196;8.286;2022-12-08T04:26:49;31.53;;;15.40;;
5460;SDS011;2753;49.196;8.286;2022-12-08T04:29:15;36.57;;;17.47;;
5460;SDS011;2753;49.196;8.286;2022-12-08T04:31:41;32.77;;;14.73;;
5460;SDS011;2753;49.196;8.286;2022-12-08T04:34:06;43.00;;;14.20;;
5460;SDS011;2753;49.196;8.286;2022-12-08T04:36:32;38.27;;;14.23;;
5460;SDS011;2753;49.196;8.286;2022-12-08T04:38:58;31.90;;;14.97;;
5460;SDS011;2753;49.196;8.286;2022-12-08T04:41:24;30.17;;;13.70;;
5460;SDS011;2753;49.196;8.286;2022-12-08T04:43:50;27.90;;;13.90;;
5460;SDS011;2753;49.196;8.286;2022-12-08T04:46:16;28.80;;;14.00;;
5460;SDS011;2753;49.196;8.286;2022-12-08T04:48:41;26.10;;;11.73;;
5460;SDS011;2753;49.196;8.286;2022-12-08T04:51:11;27.10;;;12.00;;
5460;SDS011;2753;49.196;8.286;2022-12-08T04:53:40;28.13;;;13.47;;
5460;SDS011;2753;49.196;8.286;2022-12-08T04:56:10;23.80;;;12.07;;
5460;SDS011;2753;49.196;8.286;2022-12-08T04:58:44;26.60;;;13.73;;
5460;SDS011;2753;49.196;8.286;2022-12-08T05:01:11;30.50;;;13.10;;
5460;SDS011;2753;49.196;8.286;2022-12-08T05:03:37;26.43;;;12.00;;
5460;SDS011;2753;49.196;8.286;2022-12-08T05:06:03;25.60;;;13.90;;
5460;SDS011;2753;49.196;8.286;2022-12-08T05:08:28;25.57;;;14.33;;
5460;SDS011;2753;49.196;8.286;2022-12-08T05:11:04;25.47;;;12.90;;
5460;SDS011;2753;49.196;8.286;2022-12-08T05:13:31;27.70;;;13.47;;
5460;SDS011;2753;49.196;8.286;2022-12-08T05:16:04;33.03;;;14.60;;
5460;SDS011;2753;49.196;8.286;2022-12-08T05:18:32;26.07;;;13.27;;
5460;SDS011;2753;49.196;8.286;2022-12-08T05:20:58;30.67;;;14.43;;
5460;SDS011;2753;49.196;8.286;2022-12-08T05:23:25;38.20;;;14.17;;
5460;SDS011;2753;49.196;8.286;2022-12-08T05:25:51;23.67;;;12.87;;
5460;SDS011;2753;49.196;8.286;2022-12-08T05:28:16;26.67;;;12.57;;
5460;SDS011;2753;49.196;8.286;2022-12-08T05:30:42;34.87;;;13.50;;
5460;SDS011;2753;49.196;8.286;2022-12-08T05:33:08;30.77;;;13.07;;
5460;SDS011;2753;49.196;8.286;2022-12-08T05:35:34;33.23;;;14.30;;
5460;SDS011;2753;49.196;8.286;2022-12-08T05:37:59;34.97;;;14.30;;
5460;SDS011;2753;49.196;8.286;2022-12-08T05:40:25;27.57;;;13.73;;
5460;SDS011;2753;49.196;8.286;2022-12-08T05:42:51;28.33;;;14.00;;
5460;SDS011;2753;49.196;8.286;2022-12-08T05:45:17;30.87;;;14.10;;
5460;SDS011;2753;49.196;8.286;2022-12-08T05:47:43;28.63;;;13.93;;
5460;SDS011;2753;49.196;8.286;2022-12-08T05:50:09;25.57;;;14.00;;
5460;SDS011;2753;49.196;8.286;2022-12-08T05:52:35;97.03;;;43.80;;
5460;SDS011;2753;49.196;8.286;2022-12-08T05:55:01;55.83;;;24.70;;
5460;SDS011;2753;49.196;8.286;2022-12-08T05:57:27;43.67;;;19.40;;
5460;SDS011;2753;49.196;8.286;2022-12-08T05:59:53;33.50;;;15.77;;
5460;SDS011;2753;49.196;8.286;2022-12-08T06:02:18;38.07;;;18.50;;
5460;SDS011;2753;49.196;8.286;2022-12-08T06:04:44;38.20;;;16.80;;
5460;SDS011;2753;49.196;8.286;2022-12-08T06:07:10;45.53;;;21.67;;
5460;SDS011;2753;49.196;8.286;2022-12-08T06:09:35;58.47;;;26.23;;
5460;SDS011;2753;49.196;8.286;2022-12-08T06:12:01;43.70;;;20.20;;
5460;SDS011;2753;49.196;8.286;2022-12-08T06:14:27;33.53;;;14.80;;
5460;SDS011;2753;49.196;8.286;2022-12-08T06:16:53;42.97;;;18.90;;
5460;SDS011;2753;49.196;8.286;2022-12-08T06:19:19;47.93;;;20.97;;
5460;SDS011;2753;49.196;8.286;2022-12-08T06:21:44;34.00;;;18.20;;
5460;SDS011;2753;49.196;8.286;2022-12-08T06:24:10;40.43;;;17.17;;
5460;SDS011;2753;49.196;8.286;2022-12-08T06:26:36;39.50;;;16.90;;
5460;SDS011;2753;49.196;8.286;2022-12-08T06:29:04;40.33;;;18.40;;
5460;SDS011;2753;49.196;8.286;2022-12-08T06:31:29;43.37;;;17.03;;
5460;SDS011;2753;49.196;8.286;2022-12-08T06:33:55;46.37;;;19.70;;
5460;SDS011;2753;49.196;8.286;2022-12-08T06:36:22;40.53;;;17.03;;
5460;SDS011;2753;49.196;8.286;2022-12-08T06:38:49;37.87;;;17.67;;
5460;SDS011;2753;49.196;8.286;2022-12-08T06:41:15;37.57;;;16.43;;
5460;SDS011;2753;49.196;8.286;2022-12-08T06:43:41;38.57;;;16.80;;
5460;SDS011;2753;49.196;8.286;2022-12-08T06:46:09;33.93;;;16.27;;
5460;SDS011;2753;49.196;8.286;2022-12-08T06:48:37;39.17;;;18.10;;
5460;SDS011;2753;49.196;8.286;2022-12-08T06:51:07;41.00;;;16.23;;
5460;SDS011;2753;49.196;8.286;2022-12-08T06:53:34;37.70;;;18.37;;
5460;SDS011;2753;49.196;8.286;2022-12-08T06:56:00;35.07;;;17.40;;
5460;SDS011;2753;49.196;8.286;2022-12-08T06:58:26;45.87;;;18.90;;
5460;SDS011;2753;49.196;8.286;2022-12-08T07:00:51;39.80;;;17.77;;
5460;SDS011;2753;49.196;8.286;2022-12-08T07:03:17;47.10;;;21.40;;
5460;SDS011;2753;49.196;8.286;2022-12-08T07:05:43;44.77;;;20.00;;
5460;SDS011;2753;49.196;8.286;2022-12-08T07:08:08;38.87;;;18.33;;
5460;SDS011;2753;49.196;8.286;2022-12-08T07:10:34;36.73;;;16.70;;
5460;SDS011;2753;49.196;8.286;2022-12-08T07:13:00;41.10;;;19.97;;
5460;SDS011;2753;49.196;8.286;2022-12-08T07:15:26;51.20;;;20.63;;
5460;SDS011;2753;49.196;8.286;2022-12-08T07:17:52;40.93;;;16.77;;
5460;SDS011;2753;49.196;8.286;2022-12-08T07:20:18;41.93;;;16.30;;
5460;SDS011;2753;49.196;8.286;2022-12-08T07:22:50;44.37;;;14.90;;
5460;SDS011;2753;49.196;8.286;2022-12-08T07:25:16;37.10;;;15.50;;
5460;SDS011;2753;49.196;8.286;2022-12-08T07:27:42;37.27;;;15.30;;
5460;SDS011;2753;49.196;8.286;2022-12-08T07:30:08;38.33;;;15.93;;
5460;SDS011;2753;49.196;8.286;2022-12-08T07:32:35;34.10;;;15.20;;
5460;SDS011;2753;49.196;8.286;2022-12-08T07:35:02;31.93;;;14.80;;
5460;SDS011;2753;49.196;8.286;2022-12-08T07:37:28;34.30;;;14.80;;
5460;SDS011;2753;49.196;8.286;2022-12-08T07:39:54;38.10;;;15.17;;
5460;SDS011;2753;49.196;8.286;2022-12-08T07:42:19;37.90;;;15.93;;
5460;SDS011;2753;49.196;8.286;2022-12-08T07:44:45;44.20;;;17.60;;
5460;SDS011;2753;49.196;8.286;2022-12-08T07:47:11;50.30;;;19.27;;
5460;SDS011;2753;49.196;8.286;2022-12-08T07:49:37;40.53;;;17.60;;
5460;SDS011;2753;49.196;8.286;2022-12-08T07:52:02;41.57;;;18.40;;
5460;SDS011;2753;49.196;8.286;2022-12-08T07:54:28;59.43;;;25.53;;
5460;SDS011;2753;49.196;8.286;2022-12-08T07:56:56;37.63;;;17.37;;
5460;SDS011;2753;49.196;8.286;2022-12-08T07:59:22;38.53;;;17.93;;
5460;SDS011;2753;49.196;8.286;2022-12-08T08:01:48;31.70;;;15.70;;
5460;SDS011;2753;49.196;8.286;2022-12-08T08:04:15;32.53;;;17.30;;
5460;SDS011;2753;49.196;8.286;2022-12-08T08:06:41;32.77;;;15.80;;
5460;SDS011;2753;49.196;8.286;2022-12-08T08:09:07;34.80;;;14.90;;
5460;SDS011;2753;49.196;8.286;2022-12-08T08:11:34;34.60;;;14.80;;
5460;SDS011;2753;49.196;8.286;2022-12-08T08:14:00;32.77;;;15.40;;
5460;SDS011;2753;49.196;8.286;2022-12-08T08:16:27;31.00;;;14.20;;
5460;SDS011;2753;49.196;8.286;2022-12-08T08:18:52;32.20;;;14.87;;
5460;SDS011;2753;49.196;8.286;2022-12-08T08:21:19;32.03;;;14.80;;
5460;SDS011;2753;49.196;8.286;2022-12-08T08:23:45;31.70;;;14.37;;
5460;SDS011;2753;49.196;8.286;2022-12-08T08:26:11;36.20;;;15.87;;
5460;SDS011;2753;49.196;8.286;2022-12-08T08:28:37;33.23;;;16.33;;
5460;SDS011;2753;49.196;8.286;2022-12-08T08:31:02;34.57;;;15.53;;
5460;SDS011;2753;49.196;8.286;2022-12-08T08:33:29;36.30;;;17.03;;
5460;SDS011;2753;49.196;8.286;2022-12-08T08:35:54;35.10;;;16.70;;
5460;SDS011;2753;49.196;8.286;2022-12-08T08:38:20;34.57;;;16.40;;
5460;SDS011;2753;49.196;8.286;2022-12-08T08:40:46;37.33;;;14.63;;
5460;SDS011;2753;49.196;8.286;2022-12-08T08:43:12;29.80;;;14.90;;
5460;SDS011;2753;49.196;8.286;2022-12-08T08:45:59;36.60;;;16.87;;
5460;SDS011;2753;49.196;8.286;2022-12-08T08:48:26;34.33;;;16.30;;
5460;SDS011;2753;49.196;8.286;2022-12-08T08:50:53;46.70;;;22.27;;
5460;SDS011;2753;49.196;8.286;2022-12-08T08:53:20;36.50;;;18.53;;
5460;SDS011;2753;49.196;8.286;2022-12-08T08:55:46;33.00;;;15.40;;
5460;SDS011;2753;49.196;8.286;2022-12-08T08:58:12;35.90;;;18.20;;
5460;SDS011;2753;49.196;8.286;2022-12-08T09:00:38;32.67;;;17.03;;
5460;SDS011;2753;49.196;8.286;2022-12-08T09:03:04;36.10;;;16.67;;
5460;SDS011;2753;49.196;8.286;2022-12-08T09:05:29;34.87;;;16.80;;
5460;SDS011;2753;49.196;8.286;2022-12-08T09:07:55;37.50;;;17.50;;
5460;SDS011;2753;49.196;8.286;2022-12-08T09:10:21;43.20;;;18.27;;
5460;SDS011;2753;49.196;8.286;2022-12-08T09:12:47;39.77;;;17.57;;
5460;SDS011;2753;49.196;8.286;2022-12-08T09:15:12;45.60;;;19.77;;
5460;SDS011;2753;49.196;8.286;2022-12-08T09:17:38;35.80;;;17.00;;
5460;SDS011;2753;49.196;8.286;2022-12-08T09:20:05;30.53;;;15.03;;
5460;SDS011;2753;49.196;8.286;2022-12-08T09:22:31;41.87;;;17.13;;
5460;SDS011;2753;49.196;8.286;2022-12-08T09:24:57;31.30;;;12.60;;
5460;SDS011;2753;49.196;8.286;2022-12-08T09:27:23;27.83;;;12.00;;
5460;SDS011;2753;49.196;8.286;2022-12-08T09:29:48;24.87;;;11.57;;
5460;SDS011;2753;49.196;8.286;2022-12-08T09:32:14;25.50;;;11.17;;
5460;SDS011;2753;49.196;8.286;2022-12-08T09:34:39;20.20;;;10.30;;
5460;SDS011;2753;49.196;8.286;2022-12-08T09:37:05;20.87;;;10.77;;
5460;SDS011;2753;49.196;8.286;2022-12-08T09:39:31;23.03;;;10.83;;
5460;SDS011;2753;49.196;8.286;2022-12-08T09:41:58;21.90;;;9.43;;
5460;SDS011;2753;49.196;8.286;2022-12-08T09:47:27;24.80;;;11.27;;
5460;SDS011;2753;49.196;8.286;2022-12-08T09:50:11;19.17;;;9.53;;
5460;SDS011;2753;49.196;8.286;2022-12-08T09:52:42;32.00;;;9.70;;
5460;SDS011;2753;49.196;8.286;2022-12-08T09:55:39;14.57;;;8.43;;
5460;SDS011;2753;49.196;8.286;2022-12-08T09:58:09;21.40;;;9.93;;
5460;SDS011;2753;49.196;8.286;2022-12-08T10:01:00;17.97;;;8.60;;
5460;SDS011;2753;49.196;8.286;2022-12-08T10:03:27;18.80;;;8.93;;
5460;SDS011;2753;49.196;8.286;2022-12-08T10:06:06;18.33;;;8.13;;
5460;SDS011;2753;49.196;8.286;2022-12-08T10:11:55;17.23;;;9.70;;
5460;SDS011;2753;49.196;8.286;2022-12-08T10:17:16;25.23;;;11.27;;
5460;SDS011;2753;49.196;8.286;2022-12-08T10:19:48;18.90;;;9.40;;
5460;SDS011;2753;49.196;8.286;2022-12-08T10:22:23;16.70;;;8.23;;
5460;SDS011;2753;49.196;8.286;2022-12-08T10:27:24;16.47;;;9.57;;
5460;SDS011;2753;49.196;8.286;2022-12-08T10:29:50;15.00;;;8.27;;
5460;SDS011;2753;49.196;8.286;2022-12-08T10:32:20;21.93;;;11.60;;
5460;SDS011;2753;49.196;8.286;2022-12-08T10:34:58;22.37;;;10.37;;
5460;SDS011;2753;49.196;8.286;2022-12-08T10:37:29;24.00;;;11.20;;
5460;SDS011;2753;49.196;8.286;2022-12-08T10:40:00;24.07;;;12.20;;
5460;SDS011;2753;49.196;8.286;2022-12-08T10:42:35;17.43;;;9.77;;
5460;SDS011;2753;49.196;8.286;2022-12-08T10:50:46;22.70;;;11.40;;
5460;SDS011;2753;49.196;8.286;2022-12-08T10:58:35;20.07;;;12.30;;
5460;SDS011;2753;49.196;8.286;2022-12-08T11:03:53;24.40;;;11.37;;
5460;SDS011;2753;49.196;8.286;2022-12-08T11:06:30;27.40;;;13.47;;
5460;SDS011;2753;49.196;8.286;2022-12-08T11:09:02;30.93;;;16.53;;
5460;SDS011;2753;49.196;8.286;2022-12-08T11:11:51;26.83;;;14.13;;
5460;SDS011;2753;49.196;8.286;2022-12-08T11:19:41;24.73;;;10.43;;
5460;SDS011;2753;49.196;8.286;2022-12-08T11:22:22;21.87;;;11.87;;
5460;SDS011;2753;49.196;8.286;2022-12-08T11:27:43;19.60;;;10.27;;
5460;SDS011;2753;49.196;8.286;2022-12-08T11:30:21;16.57;;;9.23;;
5460;SDS011;2753;49.196;8.286;2022-12-08T11:32:52;16.90;;;9.07;;
5460;SDS011;2753;49.196;8.286;2022-12-08T11:35:38;18.50;;;10.03;;
5460;SDS011;2753;49.196;8.286;2022-12-08T11:38:10;18.27;;;10.30;;
5460;SDS011;2753;49.196;8.286;2022-12-08T11:40:40;27.60;;;13.93;;
5460;SDS011;2753;49.196;8.286;2022-12-08T11:46:01;26.43;;;12.27;;
5460;SDS011;2753;49.196;8.286;2022-12-08T11:56:58;24.97;;;12.17;;
5460;SDS011;2753;49.196;8.286;2022-12-08T12:00:01;22.80;;;13.43;;
5460;SDS011;2753;49.196;8.286;2022-12-08T12:02:23;25.43;;;14.30;;
5460;SDS011;2753;49.196;8.286;2022-12-08T12:13:18;21.60;;;11.50;;
5460;SDS011;2753;49.196;8.286;2022-12-08T12:18:45;19.53;;;10.43;;
5460;SDS011;2753;49.196;8.286;2022-12-08T12:21:21;24.17;;;11.97;;
5460;SDS011;2753;49.196;8.286;2022-12-08T12:26:31;30.90;;;11.00;;
5460;SDS011;2753;49.196;8.286;2022-12-08T12:29:18;18.17;;;10.50;;
5460;SDS011;2753;49.196;8.286;2022-12-08T12:31:51;20.10;;;11.23;;
5460;SDS011;2753;49.196;8.286;2022-12-08T12:34:21;21.90;;;10.90;;
5460;SDS011;2753;49.196;8.286;2022-12-08T12:39:25;14.90;;;9.60;;
5460;SDS011;2753;49.196;8.286;2022-12-08T12:41:56;16.87;;;9.67;;
5460;SDS011;2753;49.196;8.286;2022-12-08T12:52:48;15.30;;;8.60;;
5460;SDS011;2753;49.196;8.286;2022-12-08T12:57:21;17.60;;;8.83;;
5460;SDS011;2753;49.196;8.286;2022-12-08T13:05:21;24.73;;;13.83;;
5460;SDS011;2753;49.196;8.286;2022-12-08T13:07:53;15.30;;;9.63;;
5460;SDS011;2753;49.196;8.286;2022-12-08T13:15:38;8.70;;;6.40;;
5460;SDS011;2753;49.196;8.286;2022-12-08T13:18:06;8.47;;;6.37;;
5460;SDS011;2753;49.196;8.286;2022-12-08T13:26:08;14.83;;;7.87;;
5460;SDS011;2753;49.196;8.286;2022-12-08T13:37:28;9.87;;;6.63;;
5460;SDS011;2753;49.196;8.286;2022-12-08T13:42:40;14.73;;;8.00;;
5460;SDS011;2753;49.196;8.286;2022-12-08T13:47:37;14.40;;;9.00;;
5460;SDS011;2753;49.196;8.286;2022-12-08T13:50:21;15.53;;;9.17;;
5460;SDS011;2753;49.196;8.286;2022-12-08T13:52:57;13.50;;;8.40;;
5460;SDS011;2753;49.196;8.286;2022-12-08T13:55:32;14.97;;;9.70;;
5460;SDS011;2753;49.196;8.286;2022-12-08T13:58:04;16.07;;;9.13;;
5460;SDS011;2753;49.196;8.286;2022-12-08T14:00:30;20.70;;;11.23;;
5460;SDS011;2753;49.196;8.286;2022-12-08T14:02:58;17.47;;;9.53;;
5460;SDS011;2753;49.196;8.286;2022-12-08T14:05:26;17.13;;;9.20;;
5460;SDS011;2753;49.196;8.286;2022-12-08T14:08:03;17.40;;;9.70;;
5460;SDS011;2753;49.196;8.286;2022-12-08T14:10:40;15.70;;;8.57;;
5460;SDS011;2753;49.196;8.286;2022-12-08T14:13:09;17.57;;;9.67;;
5460;SDS011;2753;49.196;8.286;2022-12-08T14:15:36;18.53;;;10.20;;
5460;SDS011;2753;49.196;8.286;2022-12-08T14:18:04;17.97;;;9.53;;
5460;SDS011;2753;49.196;8.286;2022-12-08T14:20:32;17.93;;;9.93;;
5460;SDS011;2753;49.196;8.286;2022-12-08T14:22:59;19.43;;;10.03;;
5460;SDS011;2753;49.196;8.286;2022-12-08T14:25:30;18.03;;;10.70;;
5460;SDS011;2753;49.196;8.286;2022-12-08T14:27:57;25.43;;;11.57;;
5460;SDS011;2753;49.196;8.286;2022-12-08T14:30:34;46.40;;;18.83;;
5460;SDS011;2753;49.196;8.286;2022-12-08T14:33:02;62.20;;;25.60;;
5460;SDS011;2753;49.196;8.286;2022-12-08T14:35:30;34.37;;;16.00;;
5460;SDS011;2753;49.196;8.286;2022-12-08T14:38:02;46.50;;;21.20;;
5460;SDS011;2753;49.196;8.286;2022-12-08T14:40:43;52.97;;;24.80;;
5460;SDS011;2753;49.196;8.286;2022-12-08T15:02:08;32.50;;;14.93;;
5460;SDS011;2753;49.196;8.286;2022-12-08T15:05:03;34.20;;;14.87;;
5460;SDS011;2753;49.196;8.286;2022-12-08T15:07:46;31.00;;;13.73;;
5460;SDS011;2753;49.196;8.286;2022-12-08T15:13:04;26.77;;;15.27;;
5460;SDS011;2753;49.196;8.286;2022-12-08T15:20:54;19.80;;;9.70;;
5460;SDS011;2753;49.196;8.286;2022-12-08T15:26:22;24.50;;;13.70;;
5460;SDS011;2753;49.196;8.286;2022-12-08T15:28:49;24.00;;;11.53;;
5460;SDS011;2753;49.196;8.286;2022-12-08T15:31:16;28.70;;;15.27;;
5460;SDS011;2753;49.196;8.286;2022-12-08T15:33:42;25.40;;;12.93;;
5460;SDS011;2753;49.196;8.286;2022-12-08T15:36:08;32.40;;;13.77;;
5460;SDS011;2753;49.196;8.286;2022-12-08T15:38:34;28.13;;;13.73;;
5460;SDS011;2753;49.196;8.286;2022-12-08T15:41:01;20.50;;;12.27;;
5460;SDS011;2753;49.196;8.286;2022-12-08T15:43:27;26.80;;;15.67;;
5460;SDS011;2753;49.196;8.286;2022-12-08T15:45:54;32.67;;;16.07;;
5460;SDS011;2753;49.196;8.286;2022-12-08T15:48:21;35.60;;;18.70;;
5460;SDS011;2753;49.196;8.286;2022-12-08T15:50:49;35.83;;;19.80;;
5460;SDS011;2753;49.196;8.286;2022-12-08T15:53:15;38.30;;;19.63;;
5460;SDS011;2753;49.196;8.286;2022-12-08T15:55:42;34.63;;;18.50;;
5460;SDS011;2753;49.196;8.286;2022-12-08T15:58:18;24.80;;;14.53;;
5460;SDS011;2753;49.196;8.286;2022-12-08T16:00:46;22.87;;;12.70;;
5460;SDS011;2753;49.196;8.286;2022-12-08T16:03:28;37.97;;;21.07;;
5460;SDS011;2753;49.196;8.286;2022-12-08T16:05:58;33.33;;;19.03;;
5460;SDS011;2753;49.196;8.286;2022-12-08T16:08:25;28.63;;;16.23;;
5460;SDS011;2753;49.196;8.286;2022-12-08T16:10:52;22.23;;;11.47;;
5460;SDS011;2753;49.196;8.286;2022-12-08T16:13:38;23.23;;;13.10;;
5460;SDS011;2753;49.196;8.286;2022-12-08T16:16:16;36.73;;;15.70;;
5460;SDS011;2753;49.196;8.286;2022-12-08T16:18:47;34.17;;;16.53;;
5460;SDS011;2753;49.196;8.286;2022-12-08T16:21:15;26.73;;;12.27;;
5460;SDS011;2753;49.196;8.286;2022-12-08T16:23:41;22.47;;;13.27;;
5460;SDS011;2753;49.196;8.286;2022-12-08T16:26:09;22.73;;;12.90;;
5460;SDS011;2753;49.196;8.286;2022-12-08T16:28:47;16.07;;;10.83;;
5460;SDS011;2753;49.196;8.286;2022-12-08T16:31:12;22.17;;;11.30;;
5460;SDS011;2753;49.196;8.286;2022-12-08T16:33:39;19.87;;;11.17;;
5460;SDS011;2753;49.196;8.286;2022-12-08T16:36:05;22.70;;;12.50;;
5460;SDS011;2753;49.196;8.286;2022-12-08T16:38:30;25.63;;;13.40;;
5460;SDS011;2753;49.196;8.286;2022-12-08T16:40:56;31.10;;;16.43;;
5460;SDS011;2753;49.196;8.286;2022-12-08T16:43:40;34.53;;;16.33;;
5460;SDS011;2753;49.196;8.286;2022-12-08T16:46:06;25.30;;;13.43;;
5460;SDS011;2753;49.196;8.286;2022-12-08T16:48:42;34.37;;;16.97;;
5460;SDS011;2753;49.196;8.286;2022-12-08T16:51:13;35.27;;;17.60;;
5460;SDS011;2753;49.196;8.286;2022-12-08T16:53:40;50.00;;;21.57;;
5460;SDS011;2753;49.196;8.286;2022-12-08T16:56:06;29.17;;;14.90;;
5460;SDS011;2753;49.196;8.286;2022-12-08T16:58:32;21.20;;;12.13;;
5460;SDS011;2753;49.196;8.286;2022-12-08T17:00:57;20.00;;;11.13;;
5460;SDS011;2753;49.196;8.286;2022-12-08T17:03:23;18.90;;;11.13;;
5460;SDS011;2753;49.196;8.286;2022-12-08T17:05:49;24.90;;;12.30;;
5460;SDS011;2753;49.196;8.286;2022-12-08T17:08:14;25.83;;;13.87;;
5460;SDS011;2753;49.196;8.286;2022-12-08T17:10:40;22.70;;;13.90;;
5460;SDS011;2753;49.196;8.286;2022-12-08T17:13:06;21.57;;;12.57;;
5460;SDS011;2753;49.196;8.286;2022-12-08T17:15:32;23.93;;;11.70;;
5460;SDS011;2753;49.196;8.286;2022-12-08T17:17:58;37.03;;;12.67;;
5460;SDS011;2753;49.196;8.286;2022-12-08T17:20:24;31.80;;;12.80;;
5460;SDS011;2753;49.196;8.286;2022-12-08T17:22:53;41.70;;;21.60;;
5460;SDS011;2753;49.196;8.286;2022-12-08T17:25:20;34.97;;;15.83;;
5460;SDS011;2753;49.196;8.286;2022-12-08T17:27:46;33.03;;;16.07;;
5460;SDS011;2753;49.196;8.286;2022-12-08T17:30:11;24.83;;;14.17;;
5460;SDS011;2753;49.196;8.286;2022-12-08T17:32:39;22.80;;;12.67;;
5460;SDS011;2753;49.196;8.286;2022-12-08T17:35:06;42.97;;;22.97;;
5460;SDS011;2753;49.196;8.286;2022-12-08T17:37:32;27.97;;;14.37;;
5460;SDS011;2753;49.196;8.286;2022-12-08T17:39:58;31.77;;;15.63;;
5460;SDS011;2753;49.196;8.286;2022-12-08T17:42:23;38.17;;;19.87;;
5460;SDS011;2753;49.196;8.286;2022-12-08T17:44:51;52.47;;;24.03;;
5460;SDS011;2753;49.196;8.286;2022-12-08T17:47:17;46.43;;;20.80;;
5460;SDS011;2753;49.196;8.286;2022-12-08T17:49:43;31.00;;;12.67;;
5460;SDS011;2753;49.196;8.286;2022-12-08T17:52:09;24.23;;;13.33;;
5460;SDS011;2753;49.196;8.286;2022-12-08T17:54:35;23.47;;;11.90;;
5460;SDS011;2753;49.196;8.286;2022-12-08T17:57:01;19.77;;;12.13;;
5460;SDS011;2753;49.196;8.286;2022-12-08T17:59:28;22.87;;;11.97;;